sensor_id;sensor_type;location;lat;lon;timestamp;temperature;humidity
59025;DHT22;44806;48.008;13.666;2022-08-18T00:00:44;21.90;84.80
59025;DHT22;44806;48.008;13.666;2022-08-18T00:03:12;22.00;84.10
59025;DHT22;44806;48.008;13.666;2022-08-18T00:05:40;21.90;85.60
59025;DHT22;44806;48.008;13.666;2022-08-18T00:08:07;21.70;87.00
59025;DHT22;44806;48.008;13.666;2022-08-18T00:10:39;21.70;87.80
59025;DHT22;44806;48.008;13.666;2022-08-18T00:13:11;21.70;87.60
59025;DHT22;44806;48.008;13.666;2022-08-18T00:15:40;21.70;87.00
59025;DHT22;44806;48.008;13.666;2022-08-18T00:18:08;21.60;87.20
59025;DHT22;44806;48.008;13.666;2022-08-18T00:20:35;21.70;86.80
59025;DHT22;44806;48.008;13.666;2022-08-18T00:23:02;21.70;87.40
59025;DHT22;44806;48.008;13.666;2022-08-18T00:25:34;21.60;88.30
59025;DHT22;44806;48.008;13.666;2022-08-18T00:28:03;21.40;88.80
59025;DHT22;44806;48.008;13.666;2022-08-18T00:30:30;21.30;89.30
59025;DHT22;44806;48.008;13.666;2022-08-18T00:33:00;21.40;89.60
59025;DHT22;44806;48.008;13.666;2022-08-18T00:35:29;21.40;89.70
59025;DHT22;44806;48.008;13.666;2022-08-18T00:38:02;21.40;90.10
59025;DHT22;44806;48.008;13.666;2022-08-18T00:40:32;21.20;90.50
59025;DHT22;44806;48.008;13.666;2022-08-18T00:43:01;21.10;91.10
59025;DHT22;44806;48.008;13.666;2022-08-18T00:45:33;21.10;91.20
59025;DHT22;44806;48.008;13.666;2022-08-18T00:48:04;20.90;91.30
59025;DHT22;44806;48.008;13.666;2022-08-18T00:50:36;21.00;91.60
59025;DHT22;44806;48.008;13.666;2022-08-18T00:53:10;21.10;91.00
59025;DHT22;44806;48.008;13.666;2022-08-18T00:55:40;21.10;90.60
59025;DHT22;44806;48.008;13.666;2022-08-18T00:58:21;21.10;90.90
59025;DHT22;44806;48.008;13.666;2022-08-18T01:00:51;21.00;91.10
59025;DHT22;44806;48.008;13.666;2022-08-18T01:03:21;21.00;91.40
59025;DHT22;44806;48.008;13.666;2022-08-18T01:05:55;21.00;91.40
59025;DHT22;44806;48.008;13.666;2022-08-18T01:08:27;20.90;91.70
59025;DHT22;44806;48.008;13.666;2022-08-18T01:10:55;20.80;92.10
59025;DHT22;44806;48.008;13.666;2022-08-18T01:13:29;20.70;91.90
59025;DHT22;44806;48.008;13.666;2022-08-18T01:15:58;20.60;92.80
59025;DHT22;44806;48.008;13.666;2022-08-18T01:18:49;20.60;93.20
59025;DHT22;44806;48.008;13.666;2022-08-18T01:21:40;20.50;93.90
59025;DHT22;44806;48.008;13.666;2022-08-18T01:24:25;20.10;95.50
59025;DHT22;44806;48.008;13.666;2022-08-18T01:27:15;20.10;95.70
59025;DHT22;44806;48.008;13.666;2022-08-18T01:29:43;20.20;95.10
59025;DHT22;44806;48.008;13.666;2022-08-18T01:32:15;20.20;95.30
59025;DHT22;44806;48.008;13.666;2022-08-18T01:34:45;20.20;95.50
59025;DHT22;44806;48.008;13.666;2022-08-18T01:37:22;20.20;95.10
59025;DHT22;44806;48.008;13.666;2022-08-18T01:39:52;20.30;95.20
59025;DHT22;44806;48.008;13.666;2022-08-18T01:42:20;20.30;94.80
59025;DHT22;44806;48.008;13.666;2022-08-18T01:44:48;20.50;93.80
59025;DHT22;44806;48.008;13.666;2022-08-18T01:47:18;20.50;94.10
59025;DHT22;44806;48.008;13.666;2022-08-18T01:49:45;20.60;93.90
59025;DHT22;44806;48.008;13.666;2022-08-18T01:52:18;20.60;93.60
59025;DHT22;44806;48.008;13.666;2022-08-18T01:54:46;20.70;93.30
59025;DHT22;44806;48.008;13.666;2022-08-18T01:57:21;20.60;93.60
59025;DHT22;44806;48.008;13.666;2022-08-18T01:59:51;20.70;94.00
59025;DHT22;44806;48.008;13.666;2022-08-18T02:02:24;20.70;93.80
59025;DHT22;44806;48.008;13.666;2022-08-18T02:04:56;20.60;93.70
59025;DHT22;44806;48.008;13.666;2022-08-18T02:07:25;20.70;93.50
59025;DHT22;44806;48.008;13.666;2022-08-18T02:09:56;20.70;93.10
59025;DHT22;44806;48.008;13.666;2022-08-18T02:12:26;20.80;93.30
59025;DHT22;44806;48.008;13.666;2022-08-18T02:14:58;20.80;94.10
59025;DHT22;44806;48.008;13.666;2022-08-18T02:17:26;20.70;93.20
59025;DHT22;44806;48.008;13.666;2022-08-18T02:19:57;20.80;93.30
59025;DHT22;44806;48.008;13.666;2022-08-18T02:22:24;20.80;93.50
59025;DHT22;44806;48.008;13.666;2022-08-18T02:24:52;20.80;94.00
59025;DHT22;44806;48.008;13.666;2022-08-18T02:27:27;20.80;94.10
59025;DHT22;44806;48.008;13.666;2022-08-18T02:29:59;20.80;94.10
59025;DHT22;44806;48.008;13.666;2022-08-18T02:32:31;20.90;94.80
59025;DHT22;44806;48.008;13.666;2022-08-18T02:34:59;20.90;94.00
59025;DHT22;44806;48.008;13.666;2022-08-18T02:37:27;20.90;95.30
59025;DHT22;44806;48.008;13.666;2022-08-18T02:39:56;20.90;95.30
59025;DHT22;44806;48.008;13.666;2022-08-18T02:42:32;21.00;95.50
59025;DHT22;44806;48.008;13.666;2022-08-18T02:45:00;21.00;95.30
59025;DHT22;44806;48.008;13.666;2022-08-18T02:47:28;21.10;95.20
59025;DHT22;44806;48.008;13.666;2022-08-18T02:49:58;21.10;94.60
59025;DHT22;44806;48.008;13.666;2022-08-18T02:52:25;21.10;95.30
59025;DHT22;44806;48.008;13.666;2022-08-18T02:54:54;21.10;94.90
59025;DHT22;44806;48.008;13.666;2022-08-18T02:57:25;21.10;96.00
59025;DHT22;44806;48.008;13.666;2022-08-18T02:59:55;21.10;96.00
59025;DHT22;44806;48.008;13.666;2022-08-18T03:02:23;21.20;95.50
59025;DHT22;44806;48.008;13.666;2022-08-18T03:04:50;21.10;96.00
59025;DHT22;44806;48.008;13.666;2022-08-18T03:07:20;21.20;95.90
59025;DHT22;44806;48.008;13.666;2022-08-18T03:09:48;21.20;95.50
59025;DHT22;44806;48.008;13.666;2022-08-18T03:12:15;21.20;95.70
59025;DHT22;44806;48.008;13.666;2022-08-18T03:14:46;21.10;95.70
59025;DHT22;44806;48.008;13.666;2022-08-18T03:17:15;21.10;96.00
59025;DHT22;44806;48.008;13.666;2022-08-18T03:19:43;21.10;96.00
59025;DHT22;44806;48.008;13.666;2022-08-18T03:22:13;21.10;96.10
59025;DHT22;44806;48.008;13.666;2022-08-18T03:24:46;21.10;96.60
59025;DHT22;44806;48.008;13.666;2022-08-18T03:27:13;21.10;96.30
59025;DHT22;44806;48.008;13.666;2022-08-18T03:29:41;21.10;96.60
59025;DHT22;44806;48.008;13.666;2022-08-18T03:32:08;21.00;96.70
59025;DHT22;44806;48.008;13.666;2022-08-18T03:34:39;21.00;96.50
59025;DHT22;44806;48.008;13.666;2022-08-18T03:37:09;21.10;96.70
59025;DHT22;44806;48.008;13.666;2022-08-18T03:39:47;21.00;97.00
59025;DHT22;44806;48.008;13.666;2022-08-18T03:42:20;20.90;97.50
59025;DHT22;44806;48.008;13.666;2022-08-18T03:44:48;20.90;97.50
59025;DHT22;44806;48.008;13.666;2022-08-18T03:47:15;21.00;97.50
59025;DHT22;44806;48.008;13.666;2022-08-18T03:49:45;20.90;97.90
59025;DHT22;44806;48.008;13.666;2022-08-18T03:52:14;20.90;97.30
59025;DHT22;44806;48.008;13.666;2022-08-18T03:54:41;20.80;98.00
59025;DHT22;44806;48.008;13.666;2022-08-18T03:57:11;20.90;98.30
59025;DHT22;44806;48.008;13.666;2022-08-18T03:59:40;20.80;98.10
59025;DHT22;44806;48.008;13.666;2022-08-18T04:02:11;20.80;98.20
59025;DHT22;44806;48.008;13.666;2022-08-18T04:04:39;20.90;97.70
59025;DHT22;44806;48.008;13.666;2022-08-18T04:07:11;21.00;97.60
59025;DHT22;44806;48.008;13.666;2022-08-18T04:09:42;21.00;97.40
59025;DHT22;44806;48.008;13.666;2022-08-18T04:12:13;20.90;98.70
59025;DHT22;44806;48.008;13.666;2022-08-18T04:14:45;20.90;98.30
59025;DHT22;44806;48.008;13.666;2022-08-18T04:17:14;20.90;98.50
59025;DHT22;44806;48.008;13.666;2022-08-18T04:19:43;20.90;98.50
59025;DHT22;44806;48.008;13.666;2022-08-18T04:22:13;20.80;99.00
59025;DHT22;44806;48.008;13.666;2022-08-18T04:24:45;20.80;99.20
59025;DHT22;44806;48.008;13.666;2022-08-18T04:27:15;20.80;99.40
59025;DHT22;44806;48.008;13.666;2022-08-18T04:29:50;20.70;99.40
59025;DHT22;44806;48.008;13.666;2022-08-18T04:32:23;20.70;99.50
59025;DHT22;44806;48.008;13.666;2022-08-18T04:34:50;20.60;99.70
59025;DHT22;44806;48.008;13.666;2022-08-18T04:37:20;20.70;99.90
59025;DHT22;44806;48.008;13.666;2022-08-18T04:39:47;20.60;99.90
59025;DHT22;44806;48.008;13.666;2022-08-18T04:42:20;20.60;99.90
59025;DHT22;44806;48.008;13.666;2022-08-18T04:44:49;20.60;99.90
59025;DHT22;44806;48.008;13.666;2022-08-18T04:47:17;20.60;99.90
59025;DHT22;44806;48.008;13.666;2022-08-18T04:49:45;20.60;99.90
59025;DHT22;44806;48.008;13.666;2022-08-18T04:52:16;20.60;99.90
59025;DHT22;44806;48.008;13.666;2022-08-18T04:55:02;20.50;99.90
59025;DHT22;44806;48.008;13.666;2022-08-18T04:57:32;20.50;99.90
59025;DHT22;44806;48.008;13.666;2022-08-18T04:59:59;20.50;99.90
59025;DHT22;44806;48.008;13.666;2022-08-18T05:02:27;20.50;99.90
59025;DHT22;44806;48.008;13.666;2022-08-18T05:05:03;20.40;99.90
59025;DHT22;44806;48.008;13.666;2022-08-18T05:07:33;20.50;99.90
59025;DHT22;44806;48.008;13.666;2022-08-18T05:10:05;20.50;99.90
59025;DHT22;44806;48.008;13.666;2022-08-18T05:12:32;20.60;99.90
59025;DHT22;44806;48.008;13.666;2022-08-18T05:15:01;20.70;99.90
59025;DHT22;44806;48.008;13.666;2022-08-18T05:17:29;20.60;99.90
59025;DHT22;44806;48.008;13.666;2022-08-18T05:19:59;20.50;99.90
59025;DHT22;44806;48.008;13.666;2022-08-18T05:22:29;20.60;99.90
59025;DHT22;44806;48.008;13.666;2022-08-18T05:25:04;20.60;99.90
59025;DHT22;44806;48.008;13.666;2022-08-18T05:27:32;20.50;99.90
59025;DHT22;44806;48.008;13.666;2022-08-18T05:30:00;20.50;99.90
59025;DHT22;44806;48.008;13.666;2022-08-18T05:32:28;20.60;99.90
59025;DHT22;44806;48.008;13.666;2022-08-18T05:35:02;20.70;99.90
59025;DHT22;44806;48.008;13.666;2022-08-18T05:37:35;20.80;99.90
59025;DHT22;44806;48.008;13.666;2022-08-18T05:40:08;20.90;99.90
59025;DHT22;44806;48.008;13.666;2022-08-18T05:42:38;21.00;99.90
59025;DHT22;44806;48.008;13.666;2022-08-18T05:45:10;21.00;99.90
59025;DHT22;44806;48.008;13.666;2022-08-18T05:47:41;21.10;99.90
59025;DHT22;44806;48.008;13.666;2022-08-18T05:50:11;21.00;99.90
59025;DHT22;44806;48.008;13.666;2022-08-18T05:52:46;20.90;99.90
59025;DHT22;44806;48.008;13.666;2022-08-18T05:55:26;21.00;99.90
59025;DHT22;44806;48.008;13.666;2022-08-18T05:58:27;21.10;99.90
59025;DHT22;44806;48.008;13.666;2022-08-18T06:01:01;21.30;99.90
59025;DHT22;44806;48.008;13.666;2022-08-18T06:03:33;21.40;99.90
59025;DHT22;44806;48.008;13.666;2022-08-18T06:06:10;21.50;99.90
59025;DHT22;44806;48.008;13.666;2022-08-18T06:08:44;21.60;99.70
59025;DHT22;44806;48.008;13.666;2022-08-18T06:11:14;21.70;99.60
59025;DHT22;44806;48.008;13.666;2022-08-18T06:13:46;21.70;99.10
59025;DHT22;44806;48.008;13.666;2022-08-18T06:16:21;21.80;99.00
59025;DHT22;44806;48.008;13.666;2022-08-18T06:18:56;21.80;99.20
59025;DHT22;44806;48.008;13.666;2022-08-18T06:21:38;21.80;99.50
59025;DHT22;44806;48.008;13.666;2022-08-18T06:24:18;21.80;98.80
59025;DHT22;44806;48.008;13.666;2022-08-18T06:26:58;21.90;98.90
59025;DHT22;44806;48.008;13.666;2022-08-18T06:29:41;22.00;99.50
59025;DHT22;44806;48.008;13.666;2022-08-18T06:32:19;21.90;99.60
59025;DHT22;44806;48.008;13.666;2022-08-18T06:35:00;22.00;98.90
59025;DHT22;44806;48.008;13.666;2022-08-18T06:37:32;22.00;99.10
59025;DHT22;44806;48.008;13.666;2022-08-18T06:40:20;22.00;99.90
59025;DHT22;44806;48.008;13.666;2022-08-18T06:42:49;22.10;99.30
59025;DHT22;44806;48.008;13.666;2022-08-18T06:45:18;22.10;99.10
59025;DHT22;44806;48.008;13.666;2022-08-18T06:47:53;22.10;98.90
59025;DHT22;44806;48.008;13.666;2022-08-18T06:50:26;22.10;98.90
59025;DHT22;44806;48.008;13.666;2022-08-18T06:52:57;22.10;98.90
59025;DHT22;44806;48.008;13.666;2022-08-18T06:55:32;22.10;98.70
59025;DHT22;44806;48.008;13.666;2022-08-18T06:58:03;22.30;99.90
59025;DHT22;44806;48.008;13.666;2022-08-18T07:00:33;22.40;99.60
59025;DHT22;44806;48.008;13.666;2022-08-18T07:03:04;22.40;98.60
59025;DHT22;44806;48.008;13.666;2022-08-18T07:05:34;22.50;99.80
59025;DHT22;44806;48.008;13.666;2022-08-18T07:08:10;22.50;99.90
59025;DHT22;44806;48.008;13.666;2022-08-18T07:10:40;22.60;99.90
59025;DHT22;44806;48.008;13.666;2022-08-18T07:13:17;22.40;98.20
59025;DHT22;44806;48.008;13.666;2022-08-18T07:15:45;22.50;99.90
59025;DHT22;44806;48.008;13.666;2022-08-18T07:18:14;22.50;99.20
59025;DHT22;44806;48.008;13.666;2022-08-18T07:20:49;22.60;99.50
59025;DHT22;44806;48.008;13.666;2022-08-18T07:23:30;22.60;98.00
59025;DHT22;44806;48.008;13.666;2022-08-18T07:26:06;22.50;98.00
59025;DHT22;44806;48.008;13.666;2022-08-18T07:28:39;22.50;98.60
59025;DHT22;44806;48.008;13.666;2022-08-18T07:31:32;22.40;97.90
59025;DHT22;44806;48.008;13.666;2022-08-18T07:34:05;22.60;99.30
59025;DHT22;44806;48.008;13.666;2022-08-18T07:36:43;22.50;98.00
59025;DHT22;44806;48.008;13.666;2022-08-18T07:39:17;22.60;98.10
59025;DHT22;44806;48.008;13.666;2022-08-18T07:41:49;22.60;98.60
59025;DHT22;44806;48.008;13.666;2022-08-18T07:44:24;22.70;98.60
59025;DHT22;44806;48.008;13.666;2022-08-18T07:46:56;22.80;98.20
59025;DHT22;44806;48.008;13.666;2022-08-18T07:49:27;22.90;98.80
59025;DHT22;44806;48.008;13.666;2022-08-18T07:52:03;22.90;98.10
59025;DHT22;44806;48.008;13.666;2022-08-18T07:54:50;23.00;98.00
59025;DHT22;44806;48.008;13.666;2022-08-18T07:57:26;22.90;97.70
59025;DHT22;44806;48.008;13.666;2022-08-18T08:00:13;23.10;97.90
59025;DHT22;44806;48.008;13.666;2022-08-18T08:02:50;23.20;97.50
59025;DHT22;44806;48.008;13.666;2022-08-18T08:05:24;23.00;96.90
59025;DHT22;44806;48.008;13.666;2022-08-18T08:08:04;23.00;97.70
59025;DHT22;44806;48.008;13.666;2022-08-18T08:10:38;23.20;98.90
59025;DHT22;44806;48.008;13.666;2022-08-18T08:13:15;23.30;98.10
59025;DHT22;44806;48.008;13.666;2022-08-18T08:15:52;23.30;98.40
59025;DHT22;44806;48.008;13.666;2022-08-18T08:18:41;23.40;97.40
59025;DHT22;44806;48.008;13.666;2022-08-18T08:21:16;23.50;97.20
59025;DHT22;44806;48.008;13.666;2022-08-18T08:23:49;23.50;97.40
59025;DHT22;44806;48.008;13.666;2022-08-18T08:26:35;23.50;96.50
59025;DHT22;44806;48.008;13.666;2022-08-18T08:29:13;23.70;95.40
59025;DHT22;44806;48.008;13.666;2022-08-18T08:31:49;23.80;95.90
59025;DHT22;44806;48.008;13.666;2022-08-18T08:34:25;23.90;95.40
59025;DHT22;44806;48.008;13.666;2022-08-18T08:36:59;24.00;95.50
59025;DHT22;44806;48.008;13.666;2022-08-18T08:39:33;24.20;95.90
59025;DHT22;44806;48.008;13.666;2022-08-18T08:42:09;24.20;93.90
59025;DHT22;44806;48.008;13.666;2022-08-18T08:44:41;24.20;95.80
59025;DHT22;44806;48.008;13.666;2022-08-18T08:47:16;24.40;95.10
59025;DHT22;44806;48.008;13.666;2022-08-18T08:49:48;24.50;93.70
59025;DHT22;44806;48.008;13.666;2022-08-18T08:52:21;24.60;94.60
59025;DHT22;44806;48.008;13.666;2022-08-18T08:54:52;24.60;93.80
59025;DHT22;44806;48.008;13.666;2022-08-18T08:57:24;24.60;94.40
59025;DHT22;44806;48.008;13.666;2022-08-18T08:59:53;24.70;93.10
59025;DHT22;44806;48.008;13.666;2022-08-18T09:02:56;24.80;92.60
59025;DHT22;44806;48.008;13.666;2022-08-18T09:05:27;25.10;91.60
59025;DHT22;44806;48.008;13.666;2022-08-18T09:11:04;25.30;92.90
59025;DHT22;44806;48.008;13.666;2022-08-18T09:13:52;25.50;92.50
59025;DHT22;44806;48.008;13.666;2022-08-18T09:16:32;25.60;91.20
59025;DHT22;44806;48.008;13.666;2022-08-18T09:19:24;25.60;88.80
59025;DHT22;44806;48.008;13.666;2022-08-18T09:21:58;25.60;88.30
59025;DHT22;44806;48.008;13.666;2022-08-18T09:24:28;25.70;88.60
59025;DHT22;44806;48.008;13.666;2022-08-18T09:27:13;25.90;88.90
59025;DHT22;44806;48.008;13.666;2022-08-18T09:29:50;25.90;84.20
59025;DHT22;44806;48.008;13.666;2022-08-18T09:32:54;26.10;86.70
59025;DHT22;44806;48.008;13.666;2022-08-18T09:38:34;26.40;85.70
59025;DHT22;44806;48.008;13.666;2022-08-18T09:41:22;26.50;83.00
59025;DHT22;44806;48.008;13.666;2022-08-18T09:44:02;26.70;84.00
59025;DHT22;44806;48.008;13.666;2022-08-18T09:46:58;26.80;83.60
59025;DHT22;44806;48.008;13.666;2022-08-18T09:49:44;26.90;80.20
59025;DHT22;44806;48.008;13.666;2022-08-18T09:55:53;27.30;80.50
59025;DHT22;44806;48.008;13.666;2022-08-18T09:58:54;27.40;78.70
59025;DHT22;44806;48.008;13.666;2022-08-18T10:01:35;27.40;77.30
59025;DHT22;44806;48.008;13.666;2022-08-18T10:04:27;27.50;78.30
59025;DHT22;44806;48.008;13.666;2022-08-18T10:07:27;27.60;78.10
59025;DHT22;44806;48.008;13.666;2022-08-18T10:10:06;27.40;76.10
59025;DHT22;44806;48.008;13.666;2022-08-18T10:12:53;27.40;77.70
59025;DHT22;44806;48.008;13.666;2022-08-18T10:15:41;27.70;78.80
59025;DHT22;44806;48.008;13.666;2022-08-18T10:18:29;27.90;76.90
59025;DHT22;44806;48.008;13.666;2022-08-18T10:21:07;28.00;75.60
59025;DHT22;44806;48.008;13.666;2022-08-18T10:23:48;28.00;78.20
59025;DHT22;44806;48.008;13.666;2022-08-18T10:29:49;28.00;72.20
59025;DHT22;44806;48.008;13.666;2022-08-18T10:32:34;28.10;72.30
59025;DHT22;44806;48.008;13.666;2022-08-18T10:35:04;28.30;76.60
59025;DHT22;44806;48.008;13.666;2022-08-18T10:37:36;28.50;73.40
59025;DHT22;44806;48.008;13.666;2022-08-18T10:40:18;28.80;73.30
59025;DHT22;44806;48.008;13.666;2022-08-18T10:42:51;28.90;71.30
59025;DHT22;44806;48.008;13.666;2022-08-18T10:45:24;28.70;69.70
59025;DHT22;44806;48.008;13.666;2022-08-18T10:48:06;28.70;71.70
59025;DHT22;44806;48.008;13.666;2022-08-18T10:50:40;28.60;73.90
59025;DHT22;44806;48.008;13.666;2022-08-18T10:53:12;28.80;71.50
59025;DHT22;44806;48.008;13.666;2022-08-18T10:55:49;29.00;70.50
59025;DHT22;44806;48.008;13.666;2022-08-18T10:58:44;29.20;74.40
59025;DHT22;44806;48.008;13.666;2022-08-18T11:01:34;29.30;73.20
59025;DHT22;44806;48.008;13.666;2022-08-18T11:04:06;29.20;72.20
59025;DHT22;44806;48.008;13.666;2022-08-18T11:06:39;29.50;71.20
59025;DHT22;44806;48.008;13.666;2022-08-18T11:09:10;29.40;66.60
59025;DHT22;44806;48.008;13.666;2022-08-18T11:11:40;29.40;68.70
59025;DHT22;44806;48.008;13.666;2022-08-18T11:17:19;30.10;67.00
59025;DHT22;44806;48.008;13.666;2022-08-18T11:19:51;30.40;67.30
59025;DHT22;44806;48.008;13.666;2022-08-18T11:22:21;30.40;65.90
59025;DHT22;44806;48.008;13.666;2022-08-18T11:24:48;30.10;67.20
59025;DHT22;44806;48.008;13.666;2022-08-18T11:27:19;30.30;67.10
59025;DHT22;44806;48.008;13.666;2022-08-18T11:29:48;30.60;66.80
59025;DHT22;44806;48.008;13.666;2022-08-18T11:32:20;30.30;64.50
59025;DHT22;44806;48.008;13.666;2022-08-18T11:34:51;30.30;63.70
59025;DHT22;44806;48.008;13.666;2022-08-18T11:37:22;30.00;64.40
59025;DHT22;44806;48.008;13.666;2022-08-18T11:39:54;30.10;66.00
59025;DHT22;44806;48.008;13.666;2022-08-18T11:42:27;30.10;67.30
59025;DHT22;44806;48.008;13.666;2022-08-18T11:45:03;29.90;68.30
59025;DHT22;44806;48.008;13.666;2022-08-18T11:47:32;29.90;66.00
59025;DHT22;44806;48.008;13.666;2022-08-18T11:50:07;29.90;68.70
59025;DHT22;44806;48.008;13.666;2022-08-18T11:52:47;29.90;68.50
59025;DHT22;44806;48.008;13.666;2022-08-18T11:55:19;29.90;67.20
59025;DHT22;44806;48.008;13.666;2022-08-18T11:57:52;29.80;66.10
59025;DHT22;44806;48.008;13.666;2022-08-18T12:00:54;29.80;68.50
59025;DHT22;44806;48.008;13.666;2022-08-18T12:03:33;30.10;67.30
59025;DHT22;44806;48.008;13.666;2022-08-18T12:06:12;30.30;69.40
59025;DHT22;44806;48.008;13.666;2022-08-18T12:08:50;30.50;65.60
59025;DHT22;44806;48.008;13.666;2022-08-18T12:11:20;30.70;66.30
59025;DHT22;44806;48.008;13.666;2022-08-18T12:14:04;30.90;64.50
59025;DHT22;44806;48.008;13.666;2022-08-18T12:16:35;31.00;64.70
59025;DHT22;44806;48.008;13.666;2022-08-18T12:19:05;31.00;63.90
59025;DHT22;44806;48.008;13.666;2022-08-18T12:21:33;31.00;61.50
59025;DHT22;44806;48.008;13.666;2022-08-18T12:24:04;30.60;63.20
59025;DHT22;44806;48.008;13.666;2022-08-18T12:26:31;30.20;66.80
59025;DHT22;44806;48.008;13.666;2022-08-18T12:28:59;30.50;67.10
59025;DHT22;44806;48.008;13.666;2022-08-18T12:31:26;30.80;65.40
59025;DHT22;44806;48.008;13.666;2022-08-18T12:33:53;30.50;63.50
59025;DHT22;44806;48.008;13.666;2022-08-18T12:36:28;30.30;63.20
59025;DHT22;44806;48.008;13.666;2022-08-18T12:38:55;30.60;67.10
59025;DHT22;44806;48.008;13.666;2022-08-18T12:41:23;30.80;66.30
59025;DHT22;44806;48.008;13.666;2022-08-18T12:43:50;31.00;66.60
59025;DHT22;44806;48.008;13.666;2022-08-18T12:46:18;31.10;64.70
59025;DHT22;44806;48.008;13.666;2022-08-18T12:48:46;31.10;63.90
59025;DHT22;44806;48.008;13.666;2022-08-18T12:51:13;31.00;63.10
59025;DHT22;44806;48.008;13.666;2022-08-18T12:53:41;31.20;64.00
59025;DHT22;44806;48.008;13.666;2022-08-18T12:56:19;31.30;64.90
59025;DHT22;44806;48.008;13.666;2022-08-18T12:58:48;31.40;62.10
59025;DHT22;44806;48.008;13.666;2022-08-18T13:01:15;31.30;66.20
59025;DHT22;44806;48.008;13.666;2022-08-18T13:03:42;31.40;62.80
59025;DHT22;44806;48.008;13.666;2022-08-18T13:06:11;31.30;62.30
59025;DHT22;44806;48.008;13.666;2022-08-18T13:08:40;31.40;63.00
59025;DHT22;44806;48.008;13.666;2022-08-18T13:11:08;31.40;61.60
59025;DHT22;44806;48.008;13.666;2022-08-18T13:13:36;31.30;61.90
59025;DHT22;44806;48.008;13.666;2022-08-18T13:16:05;31.30;63.30
59025;DHT22;44806;48.008;13.666;2022-08-18T13:18:33;31.10;63.90
59025;DHT22;44806;48.008;13.666;2022-08-18T13:21:01;31.20;63.60
59025;DHT22;44806;48.008;13.666;2022-08-18T13:23:29;31.20;62.10
59025;DHT22;44806;48.008;13.666;2022-08-18T13:26:00;31.30;64.30
59025;DHT22;44806;48.008;13.666;2022-08-18T13:28:28;31.40;63.70
59025;DHT22;44806;48.008;13.666;2022-08-18T13:30:56;31.40;61.90
59025;DHT22;44806;48.008;13.666;2022-08-18T13:33:23;31.40;64.40
59025;DHT22;44806;48.008;13.666;2022-08-18T13:35:51;31.30;63.40
59025;DHT22;44806;48.008;13.666;2022-08-18T13:38:19;31.30;63.20
59025;DHT22;44806;48.008;13.666;2022-08-18T13:40:48;31.20;62.90
59025;DHT22;44806;48.008;13.666;2022-08-18T13:43:20;31.10;63.70
59025;DHT22;44806;48.008;13.666;2022-08-18T13:45:50;30.90;64.10
59025;DHT22;44806;48.008;13.666;2022-08-18T13:48:17;30.90;64.70
59025;DHT22;44806;48.008;13.666;2022-08-18T13:50:44;30.90;64.50
59025;DHT22;44806;48.008;13.666;2022-08-18T13:53:13;30.90;65.00
59025;DHT22;44806;48.008;13.666;2022-08-18T13:55:43;30.90;65.00
59025;DHT22;44806;48.008;13.666;2022-08-18T13:58:10;30.70;64.60
59025;DHT22;44806;48.008;13.666;2022-08-18T14:00:39;30.60;65.10
59025;DHT22;44806;48.008;13.666;2022-08-18T14:03:07;30.30;64.70
59025;DHT22;44806;48.008;13.666;2022-08-18T14:05:37;30.10;65.70
59025;DHT22;44806;48.008;13.666;2022-08-18T14:08:04;30.00;67.60
59025;DHT22;44806;48.008;13.666;2022-08-18T14:10:32;29.90;66.80
59025;DHT22;44806;48.008;13.666;2022-08-18T14:13:00;29.90;67.70
59025;DHT22;44806;48.008;13.666;2022-08-18T14:15:27;29.80;68.30
59025;DHT22;44806;48.008;13.666;2022-08-18T14:17:57;29.70;68.60
59025;DHT22;44806;48.008;13.666;2022-08-18T14:20:25;29.50;68.20
59025;DHT22;44806;48.008;13.666;2022-08-18T14:23:11;29.40;69.00
59025;DHT22;44806;48.008;13.666;2022-08-18T14:25:56;29.40;70.90
59025;DHT22;44806;48.008;13.666;2022-08-18T14:28:41;29.50;73.50
59025;DHT22;44806;48.008;13.666;2022-08-18T14:31:08;29.40;73.60
59025;DHT22;44806;48.008;13.666;2022-08-18T14:33:38;29.40;73.60
59025;DHT22;44806;48.008;13.666;2022-08-18T14:36:05;29.40;72.10
59025;DHT22;44806;48.008;13.666;2022-08-18T14:38:33;29.20;72.00
59025;DHT22;44806;48.008;13.666;2022-08-18T14:41:03;29.30;71.80
59025;DHT22;44806;48.008;13.666;2022-08-18T14:43:30;29.30;71.00
59025;DHT22;44806;48.008;13.666;2022-08-18T14:46:00;29.20;70.10
59025;DHT22;44806;48.008;13.666;2022-08-18T14:48:28;29.10;72.40
59025;DHT22;44806;48.008;13.666;2022-08-18T14:50:58;29.20;74.10
59025;DHT22;44806;48.008;13.666;2022-08-18T14:53:27;29.10;70.40
59025;DHT22;44806;48.008;13.666;2022-08-18T14:55:56;29.20;71.20
59025;DHT22;44806;48.008;13.666;2022-08-18T14:58:26;29.20;73.20
59025;DHT22;44806;48.008;13.666;2022-08-18T15:00:54;29.50;71.60
59025;DHT22;44806;48.008;13.666;2022-08-18T15:03:23;29.80;69.70
59025;DHT22;44806;48.008;13.666;2022-08-18T15:05:50;30.10;70.20
59025;DHT22;44806;48.008;13.666;2022-08-18T15:08:18;30.40;69.00
59025;DHT22;44806;48.008;13.666;2022-08-18T15:10:46;30.50;71.50
59025;DHT22;44806;48.008;13.666;2022-08-18T15:13:14;30.70;70.00
59025;DHT22;44806;48.008;13.666;2022-08-18T15:15:43;30.80;67.80
59025;DHT22;44806;48.008;13.666;2022-08-18T15:18:11;30.80;67.60
59025;DHT22;44806;48.008;13.666;2022-08-18T15:20:38;30.80;67.70
59025;DHT22;44806;48.008;13.666;2022-08-18T15:23:21;30.80;67.20
59025;DHT22;44806;48.008;13.666;2022-08-18T15:26:05;30.70;67.60
59025;DHT22;44806;48.008;13.666;2022-08-18T15:28:33;30.90;68.20
59025;DHT22;44806;48.008;13.666;2022-08-18T15:31:00;31.20;67.20
59025;DHT22;44806;48.008;13.666;2022-08-18T15:33:27;31.40;65.70
59025;DHT22;44806;48.008;13.666;2022-08-18T15:35:54;31.40;64.90
59025;DHT22;44806;48.008;13.666;2022-08-18T15:38:23;31.60;64.60
59025;DHT22;44806;48.008;13.666;2022-08-18T15:40:52;31.80;64.60
59025;DHT22;44806;48.008;13.666;2022-08-18T15:43:20;32.10;64.80
59025;DHT22;44806;48.008;13.666;2022-08-18T15:45:47;32.30;62.50
59025;DHT22;44806;48.008;13.666;2022-08-18T15:48:15;32.60;63.30
59025;DHT22;44806;48.008;13.666;2022-08-18T15:50:43;33.00;62.60
59025;DHT22;44806;48.008;13.666;2022-08-18T15:53:15;33.20;61.90
59025;DHT22;44806;48.008;13.666;2022-08-18T15:55:44;33.40;60.20
59025;DHT22;44806;48.008;13.666;2022-08-18T15:58:11;33.60;60.10
59025;DHT22;44806;48.008;13.666;2022-08-18T16:00:41;34.00;60.50
59025;DHT22;44806;48.008;13.666;2022-08-18T16:03:09;34.20;59.40
59025;DHT22;44806;48.008;13.666;2022-08-18T16:05:43;34.20;59.10